createdAt,value
2019-03-13T00:01:29.258Z,60.20
2019-03-13T00:04:02.346Z,61.07
2019-03-13T00:06:35.562Z,60.58
2019-03-13T00:09:13.121Z,60.99
2019-03-13T00:11:46.035Z,61.75
2019-03-13T00:14:20.174Z,60.24
2019-03-13T00:16:54.247Z,60.43
2019-03-13T00:19:27.212Z,60.93
2019-03-13T00:22:00.134Z,60.80
2019-03-13T00:24:33.224Z,60.92
2019-03-13T00:27:06.036Z,61.79
2019-03-13T00:29:40.113Z,61.08
2019-03-13T00:32:14.417Z,61.23
2019-03-13T00:34:47.279Z,60.34
2019-03-13T00:37:20.126Z,60.41
2019-03-13T00:39:52.953Z,60.91
2019-03-13T00:42:25.903Z,61.17
2019-03-13T00:44:58.706Z,61.07
2019-03-13T00:47:31.655Z,61.91
2019-03-13T00:50:04.472Z,60.92
2019-03-13T00:52:37.253Z,61.17
2019-03-13T00:55:10.086Z,61.92
2019-03-13T00:57:42.820Z,60.73
2019-03-13T01:00:21.085Z,60.75
2019-03-13T01:02:54.385Z,61.39
2019-03-13T01:05:32.645Z,60.69
2019-03-13T01:08:05.522Z,61.05
2019-03-13T01:10:38.386Z,61.00
2019-03-13T01:13:11.205Z,60.69
2019-03-13T01:15:44.043Z,61.26
2019-03-13T01:18:16.844Z,60.97
2019-03-13T01:20:49.696Z,60.78
2019-03-13T01:23:22.647Z,61.69
2019-03-13T01:25:55.533Z,60.37
2019-03-13T01:28:28.557Z,60.64
2019-03-13T01:31:35.468Z,61.21
2019-03-13T01:34:26.023Z,60.08
2019-03-13T01:36:58.920Z,60.41
2019-03-13T01:39:31.799Z,61.22
2019-03-13T01:42:04.545Z,60.76
2019-03-13T01:44:40.458Z,61.41
2019-03-13T01:47:11.853Z,60.94
2019-03-13T01:49:44.676Z,61.44
2019-03-13T01:52:17.808Z,60.79
2019-03-13T01:54:50.638Z,60.85
2019-03-13T01:57:23.463Z,61.11
2019-03-13T01:59:56.396Z,60.67
2019-03-13T02:02:29.310Z,61.50
2019-03-13T02:05:02.151Z,60.55
2019-03-13T02:07:35.066Z,60.75
2019-03-13T02:10:08.895Z,60.89
2019-03-13T02:12:43.998Z,60.56
2019-03-13T02:15:21.196Z,60.90
2019-03-13T02:17:54.367Z,60.11
2019-03-13T02:20:27.450Z,60.29
2019-03-13T02:23:00.441Z,60.38
2019-03-13T02:25:33.269Z,60.06
2019-03-13T02:28:06.130Z,60.29
2019-03-13T02:30:38.941Z,60.88
2019-03-13T02:33:11.730Z,60.17
2019-03-13T02:35:44.572Z,60.43
2019-03-13T02:38:17.458Z,60.39
2019-03-13T02:40:50.508Z,60.26
2019-03-13T02:43:23.332Z,60.55
2019-03-13T02:45:56.180Z,60.86
2019-03-13T02:48:29.057Z,60.23
2019-03-13T02:51:01.956Z,60.74
2019-03-13T02:53:34.736Z,60.39
2019-03-13T02:56:07.623Z,60.47
2019-03-13T02:58:40.521Z,60.98
2019-03-13T03:01:20.883Z,60.81
2019-03-13T03:03:55.773Z,60.92
2019-03-13T03:06:28.572Z,60.83
2019-03-13T03:09:01.422Z,60.59
2019-03-13T03:11:35.759Z,60.90
2019-03-13T03:14:09.483Z,60.76
2019-03-13T03:16:42.317Z,60.97
2019-03-13T03:19:15.141Z,60.47
2019-03-13T03:21:47.942Z,60.55
2019-03-13T03:24:20.771Z,60.24
2019-03-13T03:26:53.700Z,60.40
2019-03-13T03:29:26.605Z,60.90
2019-03-13T03:31:59.504Z,60.66
2019-03-13T03:34:32.350Z,59.95
2019-03-13T03:37:05.174Z,60.56
2019-03-13T03:39:37.970Z,60.51
2019-03-13T03:42:11.177Z,60.38
2019-03-13T03:44:43.931Z,60.89
2019-03-13T03:47:16.771Z,60.63
2019-03-13T03:49:49.493Z,60.41
2019-03-13T03:52:22.299Z,61.02
2019-03-13T03:54:55.102Z,60.90
2019-03-13T03:57:27.838Z,60.92
2019-03-13T04:00:00.658Z,60.63
2019-03-13T04:02:33.561Z,60.41
2019-03-13T04:05:06.797Z,60.87
2019-03-13T04:07:39.572Z,61.06
2019-03-13T04:10:12.748Z,60.81
2019-03-13T04:12:45.661Z,61.06
2019-03-13T04:15:18.890Z,61.03
2019-03-13T04:17:51.618Z,60.83
2019-03-13T04:20:24.414Z,60.82
2019-03-13T04:22:57.199Z,60.18
2019-03-13T04:25:37.369Z,60.13
2019-03-13T04:28:10.193Z,60.02
2019-03-13T04:30:42.921Z,60.52
2019-03-13T04:33:15.922Z,60.69
2019-03-13T04:35:48.608Z,60.93
2019-03-13T04:38:21.445Z,60.90
2019-03-13T04:40:54.183Z,61.30
2019-03-13T04:43:27.117Z,61.07
2019-03-13T04:45:59.850Z,61.75
2019-03-13T04:48:32.599Z,62.51
2019-03-13T04:51:05.394Z,66.36
2019-03-13T04:53:38.156Z,54.08
2019-03-13T04:56:11.011Z,45.60
2019-03-13T04:58:43.822Z,48.14
2019-03-13T05:01:16.596Z,51.37
2019-03-13T05:03:49.388Z,53.26
2019-03-13T05:06:24.242Z,54.81
2019-03-13T05:09:21.644Z,56.30
2019-03-13T05:11:54.491Z,57.46
2019-03-13T05:14:27.441Z,58.23
2019-03-13T05:17:00.274Z,59.21
2019-03-13T05:19:33.070Z,60.08
2019-03-13T05:22:05.865Z,61.14
2019-03-13T05:24:38.577Z,61.50
2019-03-13T05:27:11.381Z,63.22
2019-03-13T05:29:44.282Z,63.52
2019-03-13T05:32:17.091Z,48.46
2019-03-13T05:34:49.960Z,48.05
2019-03-13T05:37:22.812Z,50.90
2019-03-13T05:39:55.582Z,53.39
2019-03-13T05:42:28.604Z,55.21
2019-03-13T05:45:01.797Z,57.43
2019-03-13T05:47:34.719Z,59.90
2019-03-13T05:50:07.908Z,64.01
2019-03-13T05:52:41.770Z,60.97
2019-03-13T05:55:14.812Z,49.77
2019-03-13T05:57:47.608Z,51.30
2019-03-13T06:00:21.257Z,53.92
2019-03-13T06:02:54.123Z,55.97
2019-03-13T06:05:27.017Z,58.18
2019-03-13T06:07:59.891Z,59.91
2019-03-13T06:10:32.874Z,61.43
2019-03-13T06:13:05.789Z,62.73
2019-03-13T06:15:38.614Z,64.36
2019-03-13T06:18:11.379Z,50.53
2019-03-13T06:20:44.123Z,48.08
2019-03-13T06:23:17.038Z,51.30
2019-03-13T06:25:50.032Z,53.96
2019-03-13T06:28:22.830Z,56.13
2019-03-13T06:30:55.544Z,57.56
2019-03-13T06:33:28.376Z,59.70
2019-03-13T06:36:01.225Z,60.47
2019-03-13T06:38:34.096Z,61.93
2019-03-13T06:41:07.014Z,65.15
2019-03-13T06:43:39.843Z,52.62
2019-03-13T06:46:12.663Z,49.63
2019-03-13T06:48:45.533Z,52.12
2019-03-13T06:51:18.256Z,54.82
2019-03-13T06:53:51.029Z,56.39
2019-03-13T06:56:23.984Z,58.85
2019-03-13T06:59:14.283Z,59.96
2019-03-13T07:02:04.563Z,61.45
2019-03-13T07:04:56.241Z,65.10
2019-03-13T07:07:46.703Z,54.10
2019-03-13T07:10:26.019Z,48.15
2019-03-13T07:13:14.991Z,51.38
2019-03-13T07:15:57.032Z,54.37
2019-03-13T07:18:42.272Z,56.86
2019-03-13T07:21:30.640Z,58.72
2019-03-13T07:24:21.002Z,59.23
2019-03-13T07:27:26.251Z,60.77
2019-03-13T07:30:22.429Z,62.64
2019-03-13T07:33:29.213Z,59.89
2019-03-13T07:36:15.608Z,50.64
2019-03-13T07:39:11.325Z,53.20
2019-03-13T07:42:05.991Z,56.37
2019-03-13T07:44:57.630Z,58.70
2019-03-13T07:47:41.497Z,60.03
2019-03-13T07:50:42.200Z,61.89
2019-03-13T07:53:45.875Z,64.52
2019-03-13T07:56:43.915Z,49.68
2019-03-13T07:59:48.151Z,49.79
2019-03-13T08:02:46.164Z,54.39
2019-03-13T08:05:41.200Z,56.42
2019-03-13T08:08:48.324Z,58.84
2019-03-13T08:11:34.399Z,60.46
2019-03-13T08:14:22.780Z,62.39
2019-03-13T08:17:02.313Z,57.92
2019-03-13T08:19:59.839Z,51.27
2019-03-13T08:22:50.307Z,53.41
2019-03-13T08:25:32.452Z,55.87
2019-03-13T08:28:16.600Z,57.47
2019-03-13T08:31:10.974Z,59.21
2019-03-13T08:34:09.871Z,59.42
2019-03-13T08:36:51.912Z,60.54
2019-03-13T08:39:46.549Z,61.92
2019-03-13T08:42:30.669Z,60.78
2019-03-13T08:45:19.883Z,49.06
2019-03-13T08:48:20.477Z,51.94
2019-03-13T08:51:12.020Z,55.53
2019-03-13T08:54:20.467Z,55.20
2019-03-13T08:57:22.885Z,54.45
2019-03-13T09:00:09.117Z,54.83
2019-03-13T09:02:52.440Z,55.90
2019-03-13T09:05:39.548Z,55.72
2019-03-13T09:08:37.205Z,56.50
2019-03-13T09:11:28.771Z,51.69
2019-03-13T09:14:23.311Z,50.86
2019-03-13T09:17:19.427Z,52.90
2019-03-13T09:20:13.744Z,53.11
2019-03-13T09:23:23.443Z,53.40
2019-03-13T09:26:11.513Z,53.17
2019-03-13T09:29:08.798Z,52.75
2019-03-13T09:32:00.490Z,52.96
2019-03-13T09:35:10.336Z,54.85
2019-03-13T09:38:20.067Z,56.03
2019-03-13T09:41:30.126Z,55.85
2019-03-13T09:44:21.809Z,55.79
2019-03-13T09:47:22.989Z,57.07
2019-03-13T09:50:26.731Z,56.97
2019-03-13T09:53:12.708Z,58.12
2019-03-13T09:56:04.449Z,56.86
2019-03-13T09:59:14.437Z,56.32
2019-03-13T10:02:08.891Z,54.73
2019-03-13T10:05:03.305Z,55.98
2019-03-13T10:08:03.823Z,55.65
2019-03-13T10:10:43.369Z,53.89
2019-03-13T10:13:50.151Z,52.94
2019-03-13T10:16:47.859Z,51.54
2019-03-13T10:19:43.167Z,52.60
2019-03-13T10:22:27.890Z,53.97
2019-03-13T10:25:08.780Z,51.77
2019-03-13T10:28:12.510Z,51.11
2019-03-13T10:31:08.282Z,49.84
2019-03-13T10:34:02.963Z,49.37
2019-03-13T10:37:06.634Z,49.95
2019-03-13T10:40:07.802Z,50.35
2019-03-13T10:43:02.332Z,51.50
2019-03-13T10:45:56.801Z,52.01
2019-03-13T10:49:03.652Z,49.65
2019-03-13T10:51:48.518Z,49.53
2019-03-13T10:54:28.215Z,50.25
2019-03-13T10:57:10.715Z,50.82
2019-03-13T10:59:49.345Z,50.46
2019-03-13T11:02:37.531Z,50.71
2019-03-13T11:05:30.073Z,49.88
2019-03-13T11:08:12.645Z,49.88
2019-03-13T11:10:53.438Z,51.07
2019-03-13T11:13:33.569Z,49.43
2019-03-13T11:16:27.988Z,50.13
2019-03-13T11:19:23.379Z,49.17
2019-03-13T11:22:08.716Z,48.26
2019-03-13T11:24:53.087Z,47.99
2019-03-13T11:27:43.784Z,48.66
2019-03-13T11:30:35.989Z,47.35
2019-03-13T11:33:33.902Z,48.46
2019-03-13T11:36:16.298Z,48.94
2019-03-13T11:39:04.024Z,49.44
2019-03-13T11:42:03.588Z,48.26
2019-03-13T11:44:58.637Z,46.37
2019-03-13T11:47:50.294Z,46.04
2019-03-13T11:50:28.629Z,45.87
2019-03-13T11:53:13.121Z,46.70
2019-03-13T11:56:07.517Z,46.59
2019-03-13T11:58:53.078Z,44.58
2019-03-13T12:01:47.688Z,45.22
2019-03-13T12:04:55.210Z,44.81
2019-03-13T12:07:46.856Z,44.41
2019-03-13T12:10:37.361Z,41.28
2019-03-13T12:13:23.584Z,42.28
2019-03-13T12:16:14.135Z,40.27
2019-03-13T12:19:06.433Z,41.66
2019-03-13T12:21:49.598Z,41.18
2019-03-13T12:24:30.037Z,41.71
2019-03-13T12:27:17.698Z,41.66
2019-03-13T12:30:04.152Z,41.19
2019-03-13T12:33:11.706Z,40.54
2019-03-13T12:36:49.534Z,42.19
2019-03-13T12:39:42.241Z,42.03
2019-03-13T12:42:34.112Z,42.00
2019-03-13T12:45:27.846Z,42.04
2019-03-13T12:48:16.661Z,42.45
2019-03-13T12:51:01.761Z,41.78
2019-03-13T12:53:44.180Z,41.06
2019-03-13T12:56:45.039Z,41.76
2019-03-13T12:59:48.645Z,42.01
2019-03-13T13:02:49.593Z,42.98
2019-03-13T13:05:41.114Z,44.35
2019-03-13T13:08:41.815Z,44.03
2019-03-13T13:11:48.564Z,44.25
2019-03-13T13:14:35.329Z,44.23
2019-03-13T13:17:34.096Z,45.42
2019-03-13T13:20:08.563Z,45.32
2019-03-13T13:22:41.504Z,44.34
2019-03-13T13:25:15.410Z,42.62
2019-03-13T13:27:48.272Z,44.33
2019-03-13T13:30:21.100Z,43.69
2019-03-13T13:32:53.889Z,44.17
2019-03-13T13:35:26.747Z,43.13
2019-03-13T13:37:59.636Z,43.13
2019-03-13T13:40:32.535Z,43.18
2019-03-13T13:43:05.313Z,44.19
2019-03-13T13:46:15.070Z,43.60
2019-03-13T13:48:48.292Z,42.34
2019-03-13T13:51:21.125Z,41.37
2019-03-13T13:53:55.799Z,42.30
2019-03-13T13:56:28.949Z,41.27
2019-03-13T13:59:01.737Z,40.65
2019-03-13T14:01:34.613Z,42.03
2019-03-13T14:04:07.473Z,40.79
2019-03-13T14:06:40.380Z,42.28
2019-03-13T14:09:13.304Z,42.89
2019-03-13T14:11:46.211Z,42.51
2019-03-13T14:14:19.129Z,42.70
2019-03-13T14:16:51.808Z,42.51
2019-03-13T14:19:24.712Z,42.50
2019-03-13T14:21:57.620Z,42.84
2019-03-13T14:24:30.561Z,43.23
2019-03-13T14:27:13.879Z,42.84
2019-03-13T14:29:38.890Z,43.25
2019-03-13T14:32:11.612Z,43.88
2019-03-13T14:34:44.499Z,43.69
2019-03-13T14:37:17.337Z,44.05
2019-03-13T14:39:50.134Z,43.69
2019-03-13T14:42:23.052Z,43.86
2019-03-13T14:44:55.764Z,43.22
2019-03-13T14:47:28.681Z,43.56
2019-03-13T14:50:02.996Z,44.42
2019-03-13T14:52:36.290Z,44.70
2019-03-13T14:55:10.754Z,44.33
2019-03-13T14:57:43.491Z,43.90
2019-03-13T15:00:17.778Z,43.93
2019-03-13T15:02:50.834Z,45.18
2019-03-13T15:05:23.639Z,43.99
2019-03-13T15:07:56.478Z,44.64
2019-03-13T15:10:30.306Z,44.36
2019-03-13T15:13:03.292Z,43.49
2019-03-13T15:15:36.432Z,43.88
2019-03-13T15:18:09.298Z,44.80
2019-03-13T15:20:42.109Z,44.47
2019-03-13T15:23:14.889Z,46.04
2019-03-13T15:25:48.716Z,46.99
2019-03-13T15:28:21.983Z,46.06
2019-03-13T15:30:54.871Z,46.66
2019-03-13T15:33:27.972Z,45.24
2019-03-13T15:36:00.806Z,44.31
2019-03-13T15:38:36.141Z,45.55
2019-03-13T15:41:11.406Z,45.67
2019-03-13T15:43:44.474Z,44.59
2019-03-13T15:46:17.434Z,45.10
2019-03-13T15:48:50.391Z,45.60
2019-03-13T15:51:23.110Z,46.36
2019-03-13T15:53:55.893Z,46.20
2019-03-13T15:56:31.496Z,45.90
2019-03-13T15:59:04.409Z,45.76
2019-03-13T16:01:37.303Z,46.44
2019-03-13T16:04:10.185Z,46.22
2019-03-13T16:06:42.960Z,47.04
2019-03-13T16:09:18.670Z,47.38
2019-03-13T16:11:51.471Z,47.65
2019-03-13T16:14:24.205Z,48.06
2019-03-13T16:16:57.363Z,47.73
2019-03-13T16:19:30.360Z,47.99
2019-03-13T16:22:05.671Z,47.99
2019-03-13T16:24:38.815Z,48.14
2019-03-13T16:27:11.767Z,48.45
2019-03-13T16:29:47.256Z,48.47
2019-03-13T16:32:20.762Z,48.93
2019-03-13T16:34:53.696Z,49.00
2019-03-13T16:37:28.147Z,49.11
2019-03-13T16:40:00.982Z,49.25
2019-03-13T16:42:34.038Z,49.46
2019-03-13T16:45:08.584Z,49.58
2019-03-13T16:47:41.547Z,50.15
2019-03-13T16:50:16.629Z,50.15
2019-03-13T16:52:49.649Z,50.36
2019-03-13T16:55:23.547Z,50.42
2019-03-13T16:57:56.369Z,50.29
2019-03-13T17:00:29.812Z,50.16
2019-03-13T17:03:02.894Z,50.29
2019-03-13T17:05:35.797Z,50.38
2019-03-13T17:08:08.732Z,50.29
2019-03-13T17:10:41.502Z,50.40
2019-03-13T17:13:14.361Z,50.45
2019-03-13T17:15:48.075Z,50.80
2019-03-13T17:18:21.065Z,50.77
2019-03-13T17:20:54.036Z,50.91
2019-03-13T17:23:27.813Z,50.29
2019-03-13T17:26:00.823Z,50.54
2019-03-13T17:28:34.064Z,50.69
2019-03-13T17:31:07.256Z,50.53
2019-03-13T17:33:40.086Z,50.83
2019-03-13T17:36:13.361Z,51.02
2019-03-13T17:38:46.406Z,51.22
2019-03-13T17:41:19.325Z,51.63
2019-03-13T17:43:52.279Z,51.97
2019-03-13T17:46:25.208Z,51.26
2019-03-13T17:48:58.298Z,51.40
2019-03-13T17:51:31.120Z,51.68
2019-03-13T17:54:04.426Z,52.06
2019-03-13T17:56:37.194Z,51.90
2019-03-13T17:59:11.316Z,52.18
2019-03-13T18:01:44.109Z,52.33
2019-03-13T18:04:16.924Z,52.50
2019-03-13T18:06:50.769Z,52.63
2019-03-13T18:09:24.728Z,52.56
2019-03-13T18:11:57.581Z,52.72
2019-03-13T18:14:32.176Z,53.16
2019-03-13T18:17:04.959Z,53.21
2019-03-13T18:19:38.005Z,53.40
2019-03-13T18:22:10.765Z,53.85
2019-03-13T18:24:43.615Z,53.61
2019-03-13T18:27:16.412Z,53.67
2019-03-13T18:29:50.309Z,54.22
2019-03-13T18:32:23.127Z,54.15
2019-03-13T18:34:55.892Z,54.02
2019-03-13T18:37:28.776Z,54.10
2019-03-13T18:40:01.611Z,54.22
2019-03-13T18:42:34.567Z,54.51
2019-03-13T18:45:11.126Z,54.55
2019-03-13T18:47:44.986Z,54.38
2019-03-13T18:50:18.024Z,54.51
2019-03-13T18:52:50.879Z,54.55
2019-03-13T18:55:24.207Z,54.66
2019-03-13T18:57:57.049Z,54.54
2019-03-13T19:00:31.113Z,54.63
2019-03-13T19:03:04.215Z,54.66
2019-03-13T19:05:37.039Z,54.58
2019-03-13T19:08:10.090Z,54.44
2019-03-13T19:10:43.419Z,54.47
2019-03-13T19:13:16.338Z,54.63
2019-03-13T19:15:49.209Z,54.63
2019-03-13T19:18:22.055Z,54.49
2019-03-13T19:20:54.822Z,54.49
2019-03-13T19:23:27.764Z,54.33
2019-03-13T19:26:00.785Z,54.49
2019-03-13T19:28:33.774Z,54.69
2019-03-13T19:31:07.818Z,54.85
2019-03-13T19:33:40.697Z,54.98
2019-03-13T19:36:13.460Z,54.92
2019-03-13T19:38:46.358Z,54.76
2019-03-13T19:41:19.157Z,54.62
2019-03-13T19:43:51.928Z,54.83
2019-03-13T19:46:24.857Z,54.89
2019-03-13T19:48:57.869Z,54.64
2019-03-13T19:51:30.703Z,54.76
2019-03-13T19:54:03.731Z,54.68
2019-03-13T19:56:36.694Z,54.86
2019-03-13T19:59:09.754Z,54.54
2019-03-13T20:01:42.596Z,54.46
2019-03-13T20:04:16.101Z,54.52
2019-03-13T20:06:52.097Z,54.07
2019-03-13T20:09:25.328Z,54.52
2019-03-13T20:11:58.317Z,54.62
2019-03-13T20:14:31.317Z,53.98
2019-03-13T20:17:05.070Z,53.82
2019-03-13T20:19:38.180Z,53.80
2019-03-13T20:22:10.941Z,53.49
2019-03-13T20:24:43.958Z,53.81
2019-03-13T20:27:16.956Z,53.36
2019-03-13T20:29:51.617Z,53.41
2019-03-13T20:32:24.659Z,53.81
2019-03-13T20:34:57.566Z,53.88
2019-03-13T20:37:30.356Z,53.64
2019-03-13T20:40:03.184Z,53.51
2019-03-13T20:42:37.556Z,53.47
2019-03-13T20:45:12.948Z,53.42
2019-03-13T20:47:46.178Z,53.46
2019-03-13T20:50:20.576Z,53.28
2019-03-13T20:52:53.565Z,53.46
2019-03-13T20:55:26.429Z,53.73
2019-03-13T20:57:59.528Z,53.65
2019-03-13T21:00:34.645Z,53.67
2019-03-13T21:03:07.676Z,53.53
2019-03-13T21:05:40.544Z,53.81
2019-03-13T21:08:13.800Z,53.47
2019-03-13T21:10:46.822Z,54.00
2019-03-13T21:13:19.713Z,54.01
2019-03-13T21:15:52.507Z,53.89
2019-03-13T21:18:25.367Z,53.97
2019-03-13T21:20:59.295Z,53.97
2019-03-13T21:23:32.059Z,53.83
2019-03-13T21:26:05.023Z,53.63
2019-03-13T21:28:37.905Z,53.89
2019-03-13T21:31:10.810Z,53.93
2019-03-13T21:33:44.602Z,54.04
2019-03-13T21:36:17.531Z,54.10
2019-03-13T21:38:51.447Z,54.10
2019-03-13T21:41:24.241Z,53.87
2019-03-13T21:43:57.069Z,53.77
2019-03-13T21:46:29.965Z,54.02
2019-03-13T21:49:03.111Z,54.20
2019-03-13T21:51:36.030Z,54.33
2019-03-13T21:54:08.923Z,54.10
2019-03-13T21:56:41.631Z,54.08
2019-03-13T21:59:18.556Z,54.17
2019-03-13T22:01:51.362Z,54.35
2019-03-13T22:04:26.143Z,54.12
2019-03-13T22:07:02.679Z,54.10
2019-03-13T22:09:37.622Z,54.03
2019-03-13T22:12:11.639Z,53.97
2019-03-13T22:14:46.639Z,53.25
2019-03-13T22:17:19.460Z,53.26
2019-03-13T22:19:53.687Z,53.90
2019-03-13T22:22:26.829Z,53.32
2019-03-13T22:24:59.528Z,53.15
2019-03-13T22:27:33.356Z,53.39
2019-03-13T22:30:07.647Z,53.59
2019-03-13T22:32:41.740Z,53.49
2019-03-13T22:35:14.514Z,52.99
2019-03-13T22:37:47.407Z,53.15
2019-03-13T22:40:20.917Z,53.46
2019-03-13T22:42:53.645Z,53.36
2019-03-13T22:45:26.572Z,53.74
2019-03-13T22:47:59.321Z,53.43
2019-03-13T22:50:33.289Z,53.71
2019-03-13T22:53:06.228Z,53.67
2019-03-13T22:55:41.037Z,54.19
2019-03-13T22:58:13.415Z,53.95
2019-03-13T23:01:00.446Z,54.04
2019-03-13T23:03:34.959Z,54.11
2019-03-13T23:06:09.242Z,54.02
2019-03-13T23:08:42.089Z,53.52
2019-03-13T23:11:16.094Z,53.88
2019-03-13T23:13:50.520Z,54.21
2019-03-13T23:16:23.989Z,54.30
2019-03-13T23:18:57.010Z,54.43
2019-03-13T23:21:29.913Z,54.53
2019-03-13T23:24:02.893Z,54.44
2019-03-13T23:26:35.984Z,54.46
2019-03-13T23:29:10.599Z,54.39
2019-03-13T23:31:43.442Z,54.61
2019-03-13T23:34:16.370Z,54.79
2019-03-13T23:36:50.462Z,55.03
2019-03-13T23:39:23.179Z,55.10
2019-03-13T23:41:58.018Z,55.65
2019-03-13T23:44:32.183Z,55.39
2019-03-13T23:47:05.106Z,55.51
2019-03-13T23:49:39.157Z,55.77
2019-03-13T23:52:12.232Z,55.65
